Port Au Choix, Canada
Current Conditions -  °F | °C
As of 1:22 PM on Sunday 21 Dec 2014 (Local Time) from CWDH Reporting Station
Scattered Clouds Scattered Clouds  
Wind Chill: 16°   Ceiling: Unl
Heat Index: 26°   Visibility: 9mi
Dew Point: 17°   Wind: 12mph
Humidity: 69%   Direction: 250°WSW
Pressure: 30.29"   Gusts: NA
Location:  50.72°N, 57.37°W
Report Text: CWDH 211622Z AUTO 25010KT 9SM SCT021 M03/M08 A3029 RMK T10311081 WSI/SWOB
Loading
Personal Weather Stations






























Interactive Weather Map New forecast layout! Learn more

10-Day Weather Forecast

Advertisements
Track Severe Weather on mobile